sensor_id;sensor_type;location;lat;lon;timestamp;P1;durP1;ratioP1;P2;durP2;ratioP2
59856;SDS011;45733;52.668;6.860;2024-01-06T00:01:46;1.10;;;1.10;;
59856;SDS011;45733;52.668;6.860;2024-01-06T00:04:12;1.10;;;1.10;;
59856;SDS011;45733;52.668;6.860;2024-01-06T00:06:38;1.10;;;1.10;;
59856;SDS011;45733;52.668;6.860;2024-01-06T00:09:03;1.20;;;1.20;;
59856;SDS011;45733;52.668;6.860;2024-01-06T00:11:29;1.20;;;1.20;;
59856;SDS011;45733;52.668;6.860;2024-01-06T00:13:55;1.15;;;1.15;;
59856;SDS011;45733;52.668;6.860;2024-01-06T00:16:21;1.10;;;1.10;;
59856;SDS011;45733;52.668;6.860;2024-01-06T00:18:47;1.20;;;1.20;;
59856;SDS011;45733;52.668;6.860;2024-01-06T00:21:12;1.10;;;1.10;;
59856;SDS011;45733;52.668;6.860;2024-01-06T00:23:41;1.10;;;1.10;;
59856;SDS011;45733;52.668;6.860;2024-01-06T00:26:07;1.20;;;1.20;;
59856;SDS011;45733;52.668;6.860;2024-01-06T00:28:34;1.10;;;1.10;;
59856;SDS011;45733;52.668;6.860;2024-01-06T00:31:00;1.10;;;1.10;;
59856;SDS011;45733;52.668;6.860;2024-01-06T00:33:26;1.10;;;1.10;;
59856;SDS011;45733;52.668;6.860;2024-01-06T00:35:53;1.10;;;1.10;;
59856;SDS011;45733;52.668;6.860;2024-01-06T00:38:20;1.15;;;1.15;;
59856;SDS011;45733;52.668;6.860;2024-01-06T00:40:46;1.10;;;1.10;;
59856;SDS011;45733;52.668;6.860;2024-01-06T00:43:12;1.23;;;1.23;;
59856;SDS011;45733;52.668;6.860;2024-01-06T00:45:38;1.20;;;1.20;;
59856;SDS011;45733;52.668;6.860;2024-01-06T00:48:04;1.23;;;1.23;;
59856;SDS011;45733;52.668;6.860;2024-01-06T00:50:30;1.20;;;1.20;;
59856;SDS011;45733;52.668;6.860;2024-01-06T00:52:56;1.20;;;1.20;;
59856;SDS011;45733;52.668;6.860;2024-01-06T00:55:22;1.20;;;1.20;;
59856;SDS011;45733;52.668;6.860;2024-01-06T00:57:48;1.20;;;1.20;;
59856;SDS011;45733;52.668;6.860;2024-01-06T01:00:17;1.20;;;1.20;;
59856;SDS011;45733;52.668;6.860;2024-01-06T01:02:43;1.20;;;1.20;;
59856;SDS011;45733;52.668;6.860;2024-01-06T01:05:08;1.20;;;1.20;;
59856;SDS011;45733;52.668;6.860;2024-01-06T01:07:34;1.27;;;1.27;;
59856;SDS011;45733;52.668;6.860;2024-01-06T01:10:00;1.20;;;1.20;;
59856;SDS011;45733;52.668;6.860;2024-01-06T01:12:26;1.20;;;1.20;;
59856;SDS011;45733;52.668;6.860;2024-01-06T01:14:52;1.20;;;1.20;;
59856;SDS011;45733;52.668;6.860;2024-01-06T01:17:18;1.20;;;1.20;;
59856;SDS011;45733;52.668;6.860;2024-01-06T01:19:44;1.30;;;1.30;;
59856;SDS011;45733;52.668;6.860;2024-01-06T01:22:11;1.30;;;1.30;;
59856;SDS011;45733;52.668;6.860;2024-01-06T01:24:37;1.30;;;1.30;;
59856;SDS011;45733;52.668;6.860;2024-01-06T01:27:03;1.30;;;1.30;;
59856;SDS011;45733;52.668;6.860;2024-01-06T01:29:29;1.30;;;1.30;;
59856;SDS011;45733;52.668;6.860;2024-01-06T01:31:54;1.50;;;1.40;;
59856;SDS011;45733;52.668;6.860;2024-01-06T01:34:20;1.52;;;1.42;;
59856;SDS011;45733;52.668;6.860;2024-01-06T01:36:46;1.60;;;1.50;;
59856;SDS011;45733;52.668;6.860;2024-01-06T01:39:11;1.60;;;1.50;;
59856;SDS011;45733;52.668;6.860;2024-01-06T01:41:37;1.60;;;1.50;;
59856;SDS011;45733;52.668;6.860;2024-01-06T01:44:03;1.58;;;1.48;;
59856;SDS011;45733;52.668;6.860;2024-01-06T01:46:29;1.60;;;1.50;;
59856;SDS011;45733;52.668;6.860;2024-01-06T01:48:56;1.70;;;1.60;;
59856;SDS011;45733;52.668;6.860;2024-01-06T01:51:23;1.70;;;1.60;;
59856;SDS011;45733;52.668;6.860;2024-01-06T01:53:52;1.80;;;1.70;;
59856;SDS011;45733;52.668;6.860;2024-01-06T01:56:18;1.73;;;1.63;;
59856;SDS011;45733;52.668;6.860;2024-01-06T01:58:45;1.70;;;1.60;;
59856;SDS011;45733;52.668;6.860;2024-01-06T02:01:11;1.80;;;1.70;;
59856;SDS011;45733;52.668;6.860;2024-01-06T02:03:37;1.70;;;1.60;;
59856;SDS011;45733;52.668;6.860;2024-01-06T02:06:05;1.83;;;1.73;;
59856;SDS011;45733;52.668;6.860;2024-01-06T02:08:31;1.80;;;1.70;;
59856;SDS011;45733;52.668;6.860;2024-01-06T02:10:57;1.80;;;1.70;;
59856;SDS011;45733;52.668;6.860;2024-01-06T02:13:23;1.80;;;1.70;;
59856;SDS011;45733;52.668;6.860;2024-01-06T02:15:49;1.83;;;1.73;;
59856;SDS011;45733;52.668;6.860;2024-01-06T02:18:15;1.90;;;1.80;;
59856;SDS011;45733;52.668;6.860;2024-01-06T02:20:44;1.70;;;1.60;;
59856;SDS011;45733;52.668;6.860;2024-01-06T02:23:13;1.80;;;1.70;;
59856;SDS011;45733;52.668;6.860;2024-01-06T02:25:39;1.75;;;1.65;;
59856;SDS011;45733;52.668;6.860;2024-01-06T02:28:04;1.85;;;1.75;;
59856;SDS011;45733;52.668;6.860;2024-01-06T02:30:30;1.80;;;1.70;;
59856;SDS011;45733;52.668;6.860;2024-01-06T02:32:56;1.90;;;1.80;;
59856;SDS011;45733;52.668;6.860;2024-01-06T02:35:22;1.80;;;1.70;;
59856;SDS011;45733;52.668;6.860;2024-01-06T02:37:47;1.70;;;1.60;;
59856;SDS011;45733;52.668;6.860;2024-01-06T02:40:13;1.80;;;1.70;;
59856;SDS011;45733;52.668;6.860;2024-01-06T02:42:39;1.90;;;1.80;;
59856;SDS011;45733;52.668;6.860;2024-01-06T02:45:06;1.90;;;1.80;;
59856;SDS011;45733;52.668;6.860;2024-01-06T02:47:32;1.80;;;1.70;;
59856;SDS011;45733;52.668;6.860;2024-01-06T02:49:58;1.90;;;1.80;;
59856;SDS011;45733;52.668;6.860;2024-01-06T02:52:24;2.00;;;1.90;;
59856;SDS011;45733;52.668;6.860;2024-01-06T02:54:49;1.90;;;1.80;;
59856;SDS011;45733;52.668;6.860;2024-01-06T02:57:15;1.95;;;1.85;;
59856;SDS011;45733;52.668;6.860;2024-01-06T02:59:41;1.98;;;1.88;;
59856;SDS011;45733;52.668;6.860;2024-01-06T03:02:07;1.90;;;1.80;;
59856;SDS011;45733;52.668;6.860;2024-01-06T03:04:32;1.80;;;1.70;;
59856;SDS011;45733;52.668;6.860;2024-01-06T03:06:58;1.90;;;1.80;;
59856;SDS011;45733;52.668;6.860;2024-01-06T03:09:24;1.98;;;1.88;;
59856;SDS011;45733;52.668;6.860;2024-01-06T03:11:49;2.00;;;1.90;;
59856;SDS011;45733;52.668;6.860;2024-01-06T03:14:15;1.90;;;1.80;;
59856;SDS011;45733;52.668;6.860;2024-01-06T03:16:41;1.70;;;1.60;;
59856;SDS011;45733;52.668;6.860;2024-01-06T03:19:07;1.73;;;1.63;;
59856;SDS011;45733;52.668;6.860;2024-01-06T03:21:32;1.88;;;1.77;;
59856;SDS011;45733;52.668;6.860;2024-01-06T03:23:58;1.80;;;1.70;;
59856;SDS011;45733;52.668;6.860;2024-01-06T03:26:24;1.90;;;1.80;;
59856;SDS011;45733;52.668;6.860;2024-01-06T03:28:49;1.90;;;1.80;;
59856;SDS011;45733;52.668;6.860;2024-01-06T03:31:15;1.90;;;1.80;;
59856;SDS011;45733;52.668;6.860;2024-01-06T03:33:42;1.90;;;1.80;;
59856;SDS011;45733;52.668;6.860;2024-01-06T03:36:09;2.00;;;1.90;;
59856;SDS011;45733;52.668;6.860;2024-01-06T03:38:37;1.80;;;1.70;;
59856;SDS011;45733;52.668;6.860;2024-01-06T03:41:03;1.90;;;1.80;;
59856;SDS011;45733;52.668;6.860;2024-01-06T03:43:28;1.90;;;1.80;;
59856;SDS011;45733;52.668;6.860;2024-01-06T03:45:54;1.90;;;1.80;;
59856;SDS011;45733;52.668;6.860;2024-01-06T03:48:21;1.80;;;1.70;;
59856;SDS011;45733;52.668;6.860;2024-01-06T03:50:47;1.80;;;1.70;;
59856;SDS011;45733;52.668;6.860;2024-01-06T03:53:13;1.80;;;1.70;;
59856;SDS011;45733;52.668;6.860;2024-01-06T03:55:38;1.83;;;1.73;;
59856;SDS011;45733;52.668;6.860;2024-01-06T03:58:05;1.80;;;1.70;;
59856;SDS011;45733;52.668;6.860;2024-01-06T04:00:31;1.90;;;1.80;;
59856;SDS011;45733;52.668;6.860;2024-01-06T04:02:56;1.80;;;1.70;;
59856;SDS011;45733;52.668;6.860;2024-01-06T04:05:22;1.88;;;1.77;;
59856;SDS011;45733;52.668;6.860;2024-01-06T04:07:48;1.85;;;1.75;;
59856;SDS011;45733;52.668;6.860;2024-01-06T04:10:14;1.92;;;1.83;;
59856;SDS011;45733;52.668;6.860;2024-01-06T04:12:40;1.90;;;1.80;;
59856;SDS011;45733;52.668;6.860;2024-01-06T04:15:06;1.77;;;1.67;;
59856;SDS011;45733;52.668;6.860;2024-01-06T04:17:32;1.80;;;1.70;;
59856;SDS011;45733;52.668;6.860;2024-01-06T04:19:57;1.63;;;1.52;;
59856;SDS011;45733;52.668;6.860;2024-01-06T04:22:23;1.70;;;1.60;;
59856;SDS011;45733;52.668;6.860;2024-01-06T04:24:49;1.65;;;1.55;;
59856;SDS011;45733;52.668;6.860;2024-01-06T04:27:15;1.70;;;1.60;;
59856;SDS011;45733;52.668;6.860;2024-01-06T04:29:41;1.77;;;1.67;;
59856;SDS011;45733;52.668;6.860;2024-01-06T04:32:06;1.70;;;1.60;;
59856;SDS011;45733;52.668;6.860;2024-01-06T04:34:32;1.80;;;1.70;;
59856;SDS011;45733;52.668;6.860;2024-01-06T04:36:58;1.73;;;1.63;;
59856;SDS011;45733;52.668;6.860;2024-01-06T04:39:24;1.73;;;1.63;;
59856;SDS011;45733;52.668;6.860;2024-01-06T04:41:50;1.75;;;1.65;;
59856;SDS011;45733;52.668;6.860;2024-01-06T04:44:16;1.83;;;1.73;;
59856;SDS011;45733;52.668;6.860;2024-01-06T04:46:43;1.85;;;1.75;;
59856;SDS011;45733;52.668;6.860;2024-01-06T04:49:09;1.80;;;1.70;;
59856;SDS011;45733;52.668;6.860;2024-01-06T04:51:35;1.80;;;1.70;;
59856;SDS011;45733;52.668;6.860;2024-01-06T04:54:01;1.80;;;1.70;;
59856;SDS011;45733;52.668;6.860;2024-01-06T04:56:26;1.85;;;1.75;;
59856;SDS011;45733;52.668;6.860;2024-01-06T04:58:52;1.80;;;1.70;;
59856;SDS011;45733;52.668;6.860;2024-01-06T05:01:18;1.77;;;1.67;;
59856;SDS011;45733;52.668;6.860;2024-01-06T05:03:43;1.77;;;1.67;;
59856;SDS011;45733;52.668;6.860;2024-01-06T05:06:09;1.77;;;1.67;;
59856;SDS011;45733;52.668;6.860;2024-01-06T05:08:35;1.73;;;1.63;;
59856;SDS011;45733;52.668;6.860;2024-01-06T05:11:04;1.85;;;1.75;;
59856;SDS011;45733;52.668;6.860;2024-01-06T05:13:31;1.80;;;1.70;;
59856;SDS011;45733;52.668;6.860;2024-01-06T05:15:56;1.80;;;1.70;;
59856;SDS011;45733;52.668;6.860;2024-01-06T05:18:22;1.75;;;1.65;;
59856;SDS011;45733;52.668;6.860;2024-01-06T05:20:48;1.75;;;1.65;;
59856;SDS011;45733;52.668;6.860;2024-01-06T05:23:14;1.75;;;1.65;;
59856;SDS011;45733;52.668;6.860;2024-01-06T05:25:39;1.83;;;1.73;;
59856;SDS011;45733;52.668;6.860;2024-01-06T05:28:05;1.70;;;1.60;;
59856;SDS011;45733;52.668;6.860;2024-01-06T05:30:31;1.73;;;1.63;;
59856;SDS011;45733;52.668;6.860;2024-01-06T05:32:56;1.63;;;1.52;;
59856;SDS011;45733;52.668;6.860;2024-01-06T05:35:22;1.65;;;1.55;;
59856;SDS011;45733;52.668;6.860;2024-01-06T05:37:48;1.67;;;1.58;;
59856;SDS011;45733;52.668;6.860;2024-01-06T05:40:13;1.58;;;1.48;;
59856;SDS011;45733;52.668;6.860;2024-01-06T05:42:39;1.63;;;1.52;;
59856;SDS011;45733;52.668;6.860;2024-01-06T05:45:05;1.50;;;1.42;;
59856;SDS011;45733;52.668;6.860;2024-01-06T05:47:31;1.58;;;1.48;;
59856;SDS011;45733;52.668;6.860;2024-01-06T05:49:57;1.58;;;1.48;;
59856;SDS011;45733;52.668;6.860;2024-01-06T05:52:23;1.52;;;1.42;;
59856;SDS011;45733;52.668;6.860;2024-01-06T05:54:48;1.58;;;1.48;;
59856;SDS011;45733;52.668;6.860;2024-01-06T05:57:14;1.52;;;1.42;;
59856;SDS011;45733;52.668;6.860;2024-01-06T05:59:40;1.33;;;1.33;;
59856;SDS011;45733;52.668;6.860;2024-01-06T06:02:06;1.45;;;1.40;;
59856;SDS011;45733;52.668;6.860;2024-01-06T06:04:32;1.50;;;1.40;;
59856;SDS011;45733;52.668;6.860;2024-01-06T06:06:57;1.30;;;1.30;;
59856;SDS011;45733;52.668;6.860;2024-01-06T06:09:23;1.50;;;1.40;;
59856;SDS011;45733;52.668;6.860;2024-01-06T06:11:49;1.50;;;1.40;;
59856;SDS011;45733;52.668;6.860;2024-01-06T06:14:14;1.52;;;1.42;;
59856;SDS011;45733;52.668;6.860;2024-01-06T06:16:40;1.33;;;1.33;;
59856;SDS011;45733;52.668;6.860;2024-01-06T06:19:06;1.50;;;1.40;;
59856;SDS011;45733;52.668;6.860;2024-01-06T06:21:32;1.38;;;1.38;;
59856;SDS011;45733;52.668;6.860;2024-01-06T06:23:59;1.40;;;1.35;;
59856;SDS011;45733;52.668;6.860;2024-01-06T06:26:25;1.33;;;1.33;;
59856;SDS011;45733;52.668;6.860;2024-01-06T06:28:52;1.50;;;1.40;;
59856;SDS011;45733;52.668;6.860;2024-01-06T06:31:17;1.30;;;1.30;;
59856;SDS011;45733;52.668;6.860;2024-01-06T06:33:43;1.30;;;1.30;;
59856;SDS011;45733;52.668;6.860;2024-01-06T06:36:09;1.30;;;1.30;;
59856;SDS011;45733;52.668;6.860;2024-01-06T06:38:36;1.23;;;1.23;;
59856;SDS011;45733;52.668;6.860;2024-01-06T06:41:01;1.30;;;1.30;;
59856;SDS011;45733;52.668;6.860;2024-01-06T06:43:27;1.17;;;1.17;;
59856;SDS011;45733;52.668;6.860;2024-01-06T06:45:53;1.17;;;1.17;;
59856;SDS011;45733;52.668;6.860;2024-01-06T06:48:20;1.15;;;1.15;;
59856;SDS011;45733;52.668;6.860;2024-01-06T06:50:47;1.20;;;1.20;;
59856;SDS011;45733;52.668;6.860;2024-01-06T06:53:15;1.10;;;1.10;;
59856;SDS011;45733;52.668;6.860;2024-01-06T06:55:44;1.10;;;1.10;;
59856;SDS011;45733;52.668;6.860;2024-01-06T06:58:09;1.10;;;1.10;;
59856;SDS011;45733;52.668;6.860;2024-01-06T07:00:35;1.30;;;1.30;;
59856;SDS011;45733;52.668;6.860;2024-01-06T07:03:01;1.20;;;1.20;;
59856;SDS011;45733;52.668;6.860;2024-01-06T07:05:27;1.17;;;1.17;;
59856;SDS011;45733;52.668;6.860;2024-01-06T07:07:54;1.20;;;1.20;;
59856;SDS011;45733;52.668;6.860;2024-01-06T07:10:20;1.13;;;1.13;;
59856;SDS011;45733;52.668;6.860;2024-01-06T07:12:45;1.10;;;1.10;;
59856;SDS011;45733;52.668;6.860;2024-01-06T07:15:11;1.10;;;1.10;;
59856;SDS011;45733;52.668;6.860;2024-01-06T07:17:37;1.00;;;1.00;;
59856;SDS011;45733;52.668;6.860;2024-01-06T07:20:04;1.00;;;1.00;;
59856;SDS011;45733;52.668;6.860;2024-01-06T07:22:32;1.10;;;1.10;;
59856;SDS011;45733;52.668;6.860;2024-01-06T07:24:59;1.00;;;1.00;;
59856;SDS011;45733;52.668;6.860;2024-01-06T07:27:26;1.10;;;1.10;;
59856;SDS011;45733;52.668;6.860;2024-01-06T07:29:51;1.10;;;1.10;;
59856;SDS011;45733;52.668;6.860;2024-01-06T07:32:17;1.10;;;1.10;;
59856;SDS011;45733;52.668;6.860;2024-01-06T07:34:43;1.10;;;1.10;;
59856;SDS011;45733;52.668;6.860;2024-01-06T07:37:09;1.00;;;1.00;;
59856;SDS011;45733;52.668;6.860;2024-01-06T07:39:34;1.02;;;1.02;;
59856;SDS011;45733;52.668;6.860;2024-01-06T07:42:00;1.02;;;1.02;;
59856;SDS011;45733;52.668;6.860;2024-01-06T07:44:27;1.08;;;1.08;;
59856;SDS011;45733;52.668;6.860;2024-01-06T07:46:53;1.10;;;1.10;;
59856;SDS011;45733;52.668;6.860;2024-01-06T07:49:19;1.00;;;1.00;;
59856;SDS011;45733;52.668;6.860;2024-01-06T07:51:45;1.08;;;1.08;;
59856;SDS011;45733;52.668;6.860;2024-01-06T07:54:11;1.00;;;1.00;;
59856;SDS011;45733;52.668;6.860;2024-01-06T07:56:37;1.00;;;1.00;;
59856;SDS011;45733;52.668;6.860;2024-01-06T07:59:05;1.02;;;1.02;;
59856;SDS011;45733;52.668;6.860;2024-01-06T08:01:31;1.10;;;1.10;;
59856;SDS011;45733;52.668;6.860;2024-01-06T08:03:57;1.10;;;1.10;;
59856;SDS011;45733;52.668;6.860;2024-01-06T08:06:23;1.05;;;1.05;;
59856;SDS011;45733;52.668;6.860;2024-01-06T08:08:50;1.10;;;1.10;;
59856;SDS011;45733;52.668;6.860;2024-01-06T08:11:16;1.08;;;1.08;;
59856;SDS011;45733;52.668;6.860;2024-01-06T08:13:41;1.10;;;1.10;;
59856;SDS011;45733;52.668;6.860;2024-01-06T08:16:07;1.10;;;1.10;;
59856;SDS011;45733;52.668;6.860;2024-01-06T08:18:33;1.10;;;1.10;;
59856;SDS011;45733;52.668;6.860;2024-01-06T08:20:58;1.10;;;1.10;;
59856;SDS011;45733;52.668;6.860;2024-01-06T08:23:24;1.00;;;1.00;;
59856;SDS011;45733;52.668;6.860;2024-01-06T08:25:51;1.00;;;1.00;;
59856;SDS011;45733;52.668;6.860;2024-01-06T08:28:16;1.00;;;1.00;;
59856;SDS011;45733;52.668;6.860;2024-01-06T08:30:44;1.10;;;1.10;;
59856;SDS011;45733;52.668;6.860;2024-01-06T08:33:10;1.10;;;1.10;;
59856;SDS011;45733;52.668;6.860;2024-01-06T08:35:36;1.10;;;1.10;;
59856;SDS011;45733;52.668;6.860;2024-01-06T08:38:08;1.30;;;1.30;;
59856;SDS011;45733;52.668;6.860;2024-01-06T08:40:34;1.20;;;1.20;;
59856;SDS011;45733;52.668;6.860;2024-01-06T08:43:00;1.15;;;1.15;;
59856;SDS011;45733;52.668;6.860;2024-01-06T08:45:26;1.10;;;1.10;;
59856;SDS011;45733;52.668;6.860;2024-01-06T08:47:52;1.00;;;1.00;;
59856;SDS011;45733;52.668;6.860;2024-01-06T08:50:18;1.10;;;1.10;;
59856;SDS011;45733;52.668;6.860;2024-01-06T08:52:46;1.20;;;1.20;;
59856;SDS011;45733;52.668;6.860;2024-01-06T08:55:12;1.10;;;1.10;;
59856;SDS011;45733;52.668;6.860;2024-01-06T08:57:37;1.20;;;1.20;;
59856;SDS011;45733;52.668;6.860;2024-01-06T09:00:04;1.10;;;1.10;;
59856;SDS011;45733;52.668;6.860;2024-01-06T09:02:30;1.13;;;1.13;;
59856;SDS011;45733;52.668;6.860;2024-01-06T09:04:56;1.10;;;1.10;;
59856;SDS011;45733;52.668;6.860;2024-01-06T09:07:22;1.20;;;1.20;;
59856;SDS011;45733;52.668;6.860;2024-01-06T09:09:47;1.20;;;1.20;;
59856;SDS011;45733;52.668;6.860;2024-01-06T09:12:13;1.15;;;1.15;;
59856;SDS011;45733;52.668;6.860;2024-01-06T09:14:39;1.20;;;1.20;;
59856;SDS011;45733;52.668;6.860;2024-01-06T09:17:05;1.25;;;1.25;;
59856;SDS011;45733;52.668;6.860;2024-01-06T09:19:31;1.20;;;1.20;;
59856;SDS011;45733;52.668;6.860;2024-01-06T09:21:57;1.15;;;1.15;;
59856;SDS011;45733;52.668;6.860;2024-01-06T09:24:23;1.20;;;1.20;;
59856;SDS011;45733;52.668;6.860;2024-01-06T09:26:48;1.20;;;1.20;;
59856;SDS011;45733;52.668;6.860;2024-01-06T09:29:17;1.23;;;1.23;;
59856;SDS011;45733;52.668;6.860;2024-01-06T09:31:42;1.30;;;1.30;;
59856;SDS011;45733;52.668;6.860;2024-01-06T09:34:11;1.20;;;1.20;;
59856;SDS011;45733;52.668;6.860;2024-01-06T09:36:37;1.20;;;1.20;;
59856;SDS011;45733;52.668;6.860;2024-01-06T09:39:03;1.13;;;1.13;;
59856;SDS011;45733;52.668;6.860;2024-01-06T09:41:29;1.20;;;1.20;;
59856;SDS011;45733;52.668;6.860;2024-01-06T09:43:56;1.20;;;1.20;;
59856;SDS011;45733;52.668;6.860;2024-01-06T09:46:28;1.20;;;1.20;;
59856;SDS011;45733;52.668;6.860;2024-01-06T09:48:55;1.17;;;1.17;;
59856;SDS011;45733;52.668;6.860;2024-01-06T09:51:22;1.20;;;1.20;;
59856;SDS011;45733;52.668;6.860;2024-01-06T09:53:49;1.25;;;1.25;;
59856;SDS011;45733;52.668;6.860;2024-01-06T09:56:23;1.20;;;1.20;;
59856;SDS011;45733;52.668;6.860;2024-01-06T09:58:53;1.30;;;1.30;;
59856;SDS011;45733;52.668;6.860;2024-01-06T10:01:20;1.63;;;1.52;;
59856;SDS011;45733;52.668;6.860;2024-01-06T10:03:47;1.30;;;1.30;;
59856;SDS011;45733;52.668;6.860;2024-01-06T10:06:13;1.33;;;1.33;;
59856;SDS011;45733;52.668;6.860;2024-01-06T10:08:41;1.30;;;1.30;;
59856;SDS011;45733;52.668;6.860;2024-01-06T10:11:14;1.20;;;1.20;;
59856;SDS011;45733;52.668;6.860;2024-01-06T10:13:40;1.25;;;1.25;;
59856;SDS011;45733;52.668;6.860;2024-01-06T10:16:06;1.20;;;1.20;;
59856;SDS011;45733;52.668;6.860;2024-01-06T10:18:32;1.20;;;1.20;;
59856;SDS011;45733;52.668;6.860;2024-01-06T10:20:59;1.20;;;1.20;;
59856;SDS011;45733;52.668;6.860;2024-01-06T10:23:28;1.20;;;1.20;;
59856;SDS011;45733;52.668;6.860;2024-01-06T10:25:54;1.30;;;1.30;;
59856;SDS011;45733;52.668;6.860;2024-01-06T10:28:21;1.23;;;1.23;;
59856;SDS011;45733;52.668;6.860;2024-01-06T10:30:53;1.20;;;1.20;;
59856;SDS011;45733;52.668;6.860;2024-01-06T10:33:24;1.23;;;1.23;;
59856;SDS011;45733;52.668;6.860;2024-01-06T10:35:50;1.30;;;1.30;;
59856;SDS011;45733;52.668;6.860;2024-01-06T10:38:17;1.20;;;1.20;;
59856;SDS011;45733;52.668;6.860;2024-01-06T10:41:00;1.15;;;1.15;;
59856;SDS011;45733;52.668;6.860;2024-01-06T10:43:34;1.30;;;1.30;;
59856;SDS011;45733;52.668;6.860;2024-01-06T10:46:06;1.20;;;1.20;;
59856;SDS011;45733;52.668;6.860;2024-01-06T10:48:37;1.17;;;1.17;;
59856;SDS011;45733;52.668;6.860;2024-01-06T10:51:03;1.20;;;1.20;;
59856;SDS011;45733;52.668;6.860;2024-01-06T10:53:32;1.17;;;1.17;;
59856;SDS011;45733;52.668;6.860;2024-01-06T10:56:01;1.20;;;1.20;;
59856;SDS011;45733;52.668;6.860;2024-01-06T10:58:27;1.20;;;1.20;;
59856;SDS011;45733;52.668;6.860;2024-01-06T11:00:55;1.10;;;1.10;;
59856;SDS011;45733;52.668;6.860;2024-01-06T11:03:21;1.10;;;1.10;;
59856;SDS011;45733;52.668;6.860;2024-01-06T11:05:47;1.10;;;1.10;;
59856;SDS011;45733;52.668;6.860;2024-01-06T11:08:13;1.20;;;1.20;;
59856;SDS011;45733;52.668;6.860;2024-01-06T11:10:43;1.10;;;1.10;;
59856;SDS011;45733;52.668;6.860;2024-01-06T11:13:10;1.20;;;1.20;;
59856;SDS011;45733;52.668;6.860;2024-01-06T11:15:41;1.27;;;1.27;;
59856;SDS011;45733;52.668;6.860;2024-01-06T11:26:38;1.10;;;1.10;;
59856;SDS011;45733;52.668;6.860;2024-01-06T11:29:05;1.10;;;1.10;;
59856;SDS011;45733;52.668;6.860;2024-01-06T11:31:32;1.10;;;1.10;;
59856;SDS011;45733;52.668;6.860;2024-01-06T11:34:13;1.10;;;1.10;;
59856;SDS011;45733;52.668;6.860;2024-01-06T11:36:44;1.10;;;1.10;;
59856;SDS011;45733;52.668;6.860;2024-01-06T11:41:59;1.10;;;1.10;;
59856;SDS011;45733;52.668;6.860;2024-01-06T11:44:26;1.20;;;1.20;;
59856;SDS011;45733;52.668;6.860;2024-01-06T11:46:56;1.10;;;1.10;;
59856;SDS011;45733;52.668;6.860;2024-01-06T11:49:26;1.20;;;1.20;;
59856;SDS011;45733;52.668;6.860;2024-01-06T11:51:55;1.10;;;1.10;;
59856;SDS011;45733;52.668;6.860;2024-01-06T11:54:22;1.20;;;1.20;;
59856;SDS011;45733;52.668;6.860;2024-01-06T11:56:48;1.10;;;1.10;;
59856;SDS011;45733;52.668;6.860;2024-01-06T11:59:14;1.10;;;1.10;;
59856;SDS011;45733;52.668;6.860;2024-01-06T12:01:40;1.10;;;1.10;;
59856;SDS011;45733;52.668;6.860;2024-01-06T12:04:06;1.20;;;1.20;;
59856;SDS011;45733;52.668;6.860;2024-01-06T12:06:32;1.10;;;1.10;;
59856;SDS011;45733;52.668;6.860;2024-01-06T12:09:08;1.13;;;1.13;;
59856;SDS011;45733;52.668;6.860;2024-01-06T12:11:35;1.10;;;1.10;;
59856;SDS011;45733;52.668;6.860;2024-01-06T12:14:04;1.10;;;1.10;;
59856;SDS011;45733;52.668;6.860;2024-01-06T12:16:31;1.10;;;1.10;;
59856;SDS011;45733;52.668;6.860;2024-01-06T12:18:58;1.10;;;1.10;;
59856;SDS011;45733;52.668;6.860;2024-01-06T12:21:28;1.20;;;1.20;;
59856;SDS011;45733;52.668;6.860;2024-01-06T12:23:54;1.20;;;1.20;;
59856;SDS011;45733;52.668;6.860;2024-01-06T12:26:37;1.15;;;1.15;;
59856;SDS011;45733;52.668;6.860;2024-01-06T12:29:03;1.20;;;1.20;;
59856;SDS011;45733;52.668;6.860;2024-01-06T12:31:29;1.17;;;1.17;;
59856;SDS011;45733;52.668;6.860;2024-01-06T12:33:55;1.20;;;1.20;;
59856;SDS011;45733;52.668;6.860;2024-01-06T12:36:21;1.20;;;1.20;;
59856;SDS011;45733;52.668;6.860;2024-01-06T12:38:47;1.13;;;1.13;;
59856;SDS011;45733;52.668;6.860;2024-01-06T12:41:12;1.30;;;1.30;;
59856;SDS011;45733;52.668;6.860;2024-01-06T12:43:38;1.20;;;1.20;;
59856;SDS011;45733;52.668;6.860;2024-01-06T12:46:04;1.20;;;1.20;;
59856;SDS011;45733;52.668;6.860;2024-01-06T12:48:30;1.20;;;1.20;;
59856;SDS011;45733;52.668;6.860;2024-01-06T12:50:55;1.23;;;1.23;;
59856;SDS011;45733;52.668;6.860;2024-01-06T12:53:21;1.10;;;1.10;;
59856;SDS011;45733;52.668;6.860;2024-01-06T12:55:47;1.15;;;1.15;;
59856;SDS011;45733;52.668;6.860;2024-01-06T12:58:13;1.15;;;1.15;;
59856;SDS011;45733;52.668;6.860;2024-01-06T13:00:38;1.20;;;1.20;;
59856;SDS011;45733;52.668;6.860;2024-01-06T13:03:05;1.13;;;1.13;;
59856;SDS011;45733;52.668;6.860;2024-01-06T13:05:31;1.27;;;1.27;;
59856;SDS011;45733;52.668;6.860;2024-01-06T13:07:56;1.23;;;1.23;;
59856;SDS011;45733;52.668;6.860;2024-01-06T13:10:22;1.30;;;1.30;;
59856;SDS011;45733;52.668;6.860;2024-01-06T13:12:48;1.27;;;1.27;;
59856;SDS011;45733;52.668;6.860;2024-01-06T13:15:15;1.35;;;1.33;;
59856;SDS011;45733;52.668;6.860;2024-01-06T13:17:41;1.20;;;1.20;;
59856;SDS011;45733;52.668;6.860;2024-01-06T13:20:06;1.10;;;1.10;;
59856;SDS011;45733;52.668;6.860;2024-01-06T13:22:33;1.20;;;1.20;;
59856;SDS011;45733;52.668;6.860;2024-01-06T13:24:59;1.30;;;1.30;;
59856;SDS011;45733;52.668;6.860;2024-01-06T13:27:25;1.30;;;1.30;;
59856;SDS011;45733;52.668;6.860;2024-01-06T13:29:52;1.23;;;1.23;;
59856;SDS011;45733;52.668;6.860;2024-01-06T13:32:19;1.20;;;1.20;;
59856;SDS011;45733;52.668;6.860;2024-01-06T13:34:45;1.17;;;1.17;;
59856;SDS011;45733;52.668;6.860;2024-01-06T13:37:11;1.20;;;1.20;;
59856;SDS011;45733;52.668;6.860;2024-01-06T13:39:36;1.10;;;1.10;;
59856;SDS011;45733;52.668;6.860;2024-01-06T13:42:02;1.20;;;1.20;;
59856;SDS011;45733;52.668;6.860;2024-01-06T13:44:28;1.30;;;1.30;;
59856;SDS011;45733;52.668;6.860;2024-01-06T13:46:54;1.20;;;1.20;;
59856;SDS011;45733;52.668;6.860;2024-01-06T13:49:21;1.27;;;1.27;;
59856;SDS011;45733;52.668;6.860;2024-01-06T13:51:47;1.23;;;1.23;;
59856;SDS011;45733;52.668;6.860;2024-01-06T13:54:13;1.20;;;1.20;;
59856;SDS011;45733;52.668;6.860;2024-01-06T13:56:39;1.27;;;1.27;;
59856;SDS011;45733;52.668;6.860;2024-01-06T13:59:05;2.40;;;2.17;;
59856;SDS011;45733;52.668;6.860;2024-01-06T14:01:31;1.20;;;1.20;;
59856;SDS011;45733;52.668;6.860;2024-01-06T14:03:57;1.23;;;1.23;;
59856;SDS011;45733;52.668;6.860;2024-01-06T14:06:24;1.17;;;1.17;;
59856;SDS011;45733;52.668;6.860;2024-01-06T14:08:51;1.27;;;1.27;;
59856;SDS011;45733;52.668;6.860;2024-01-06T14:11:18;1.23;;;1.23;;
59856;SDS011;45733;52.668;6.860;2024-01-06T14:13:44;1.23;;;1.23;;
59856;SDS011;45733;52.668;6.860;2024-01-06T14:16:13;2.05;;;1.95;;
59856;SDS011;45733;52.668;6.860;2024-01-06T14:18:39;1.20;;;1.20;;
59856;SDS011;45733;52.668;6.860;2024-01-06T14:21:07;1.23;;;1.23;;
59856;SDS011;45733;52.668;6.860;2024-01-06T14:23:38;1.30;;;1.30;;
59856;SDS011;45733;52.668;6.860;2024-01-06T14:26:04;1.23;;;1.23;;
59856;SDS011;45733;52.668;6.860;2024-01-06T14:28:30;1.20;;;1.20;;
59856;SDS011;45733;52.668;6.860;2024-01-06T14:30:55;1.30;;;1.30;;
59856;SDS011;45733;52.668;6.860;2024-01-06T14:33:21;1.15;;;1.15;;
59856;SDS011;45733;52.668;6.860;2024-01-06T14:35:47;1.20;;;1.20;;
59856;SDS011;45733;52.668;6.860;2024-01-06T14:38:13;1.30;;;1.30;;
59856;SDS011;45733;52.668;6.860;2024-01-06T14:40:39;1.85;;;1.75;;
59856;SDS011;45733;52.668;6.860;2024-01-06T14:43:05;1.23;;;1.23;;
59856;SDS011;45733;52.668;6.860;2024-01-06T14:45:31;1.20;;;1.20;;
59856;SDS011;45733;52.668;6.860;2024-01-06T14:47:57;1.20;;;1.20;;
59856;SDS011;45733;52.668;6.860;2024-01-06T14:50:23;1.20;;;1.20;;
59856;SDS011;45733;52.668;6.860;2024-01-06T14:52:49;1.30;;;1.30;;
59856;SDS011;45733;52.668;6.860;2024-01-06T14:55:15;1.30;;;1.30;;